createdAt,value
2022-09-12T00:01:26.396Z,14.75
2022-09-12T00:03:59.101Z,14.69
2022-09-12T00:06:33.477Z,14.95
2022-09-12T00:09:08.653Z,15.13
2022-09-12T00:11:40.031Z,14.83
2022-09-12T00:14:11.391Z,14.64
2022-09-12T00:16:40.714Z,14.56
2022-09-12T00:19:10.069Z,14.61
2022-09-12T00:21:40.732Z,14.84
2022-09-12T00:24:11.469Z,14.91
2022-09-12T00:26:39.272Z,14.93
2022-09-12T00:29:07.137Z,15.03
2022-09-12T00:31:34.957Z,14.93
2022-09-12T00:34:02.741Z,14.71
2022-09-12T00:36:31.561Z,14.34
2022-09-12T00:39:00.142Z,14.08
2022-09-12T00:41:34.765Z,14.21
2022-09-12T00:50:14.070Z,14.48
2022-09-12T00:55:32.195Z,14.47
2022-09-12T01:00:47.605Z,14.43
2022-09-12T01:03:20.074Z,14.56
2022-09-12T01:06:03.384Z,14.49
2022-09-12T01:08:34.554Z,14.46
2022-09-12T01:11:08.633Z,14.31
2022-09-12T01:13:37.207Z,14.52
2022-09-12T01:16:07.355Z,14.54
2022-09-12T01:35:41.840Z,14.41
2022-09-12T01:44:14.897Z,14.48
2022-09-12T01:47:10.125Z,14.40
2022-09-12T01:53:00.976Z,14.11
2022-09-12T01:55:37.079Z,14.18
2022-09-12T02:06:44.713Z,14.43
2022-09-12T02:12:05.983Z,14.30
2022-09-12T02:14:45.915Z,14.11
2022-09-12T02:17:22.507Z,14.22
2022-09-12T02:20:00.857Z,14.22
2022-09-12T02:22:31.880Z,14.08
2022-09-12T02:25:05.817Z,13.95
2022-09-12T02:27:45.753Z,14.14
2022-09-12T02:30:16.578Z,13.99
2022-09-12T02:33:02.055Z,14.12
2022-09-12T02:41:15.940Z,13.95
2022-09-12T02:43:43.621Z,13.84
2022-09-12T02:46:24.720Z,13.87
2022-09-12T02:48:52.474Z,13.59
2022-09-12T02:51:23.633Z,13.73
2022-09-12T02:53:57.611Z,13.76
2022-09-12T02:56:30.504Z,13.71
2022-09-12T02:59:05.796Z,13.22
2022-09-12T03:22:16.191Z,13.39
2022-09-12T03:30:41.050Z,13.20
2022-09-12T03:33:13.671Z,13.02
2022-09-12T03:35:41.992Z,13.01
2022-09-12T03:38:10.135Z,13.02
2022-09-12T03:40:38.821Z,13.04
2022-09-12T03:43:08.590Z,12.98
2022-09-12T03:45:37.324Z,12.85
2022-09-12T03:48:06.343Z,12.90
2022-09-12T03:50:33.943Z,12.60
2022-09-12T03:53:03.944Z,12.84
2022-09-12T03:55:31.532Z,12.95
2022-09-12T03:58:03.480Z,12.68
2022-09-12T04:00:31.214Z,12.51
2022-09-12T04:02:58.734Z,12.54
2022-09-12T04:05:27.025Z,12.90
2022-09-12T04:07:54.462Z,12.92
2022-09-12T04:10:22.637Z,12.77
2022-09-12T04:12:49.867Z,12.99
2022-09-12T04:15:17.380Z,13.01
2022-09-12T04:17:44.737Z,13.27
2022-09-12T04:20:12.145Z,12.93
2022-09-12T04:22:39.440Z,12.91
2022-09-12T04:25:09.526Z,12.73
2022-09-12T04:27:37.719Z,12.73
2022-09-12T04:30:08.902Z,12.58
2022-09-12T04:32:36.349Z,12.97
2022-09-12T04:35:04.950Z,13.04
2022-09-12T04:37:32.295Z,13.06
2022-09-12T04:39:59.820Z,13.07
2022-09-12T04:42:27.063Z,12.96
2022-09-12T04:44:54.663Z,12.95
2022-09-12T04:47:23.081Z,13.35
2022-09-12T04:49:51.313Z,13.48
2022-09-12T04:52:18.602Z,13.32
2022-09-12T04:54:45.961Z,13.50
2022-09-12T04:57:13.364Z,13.19
2022-09-12T04:59:40.904Z,13.18
2022-09-12T05:02:10.355Z,13.19
2022-09-12T05:04:38.060Z,13.24
2022-09-12T05:07:05.899Z,13.29
2022-09-12T05:09:33.217Z,13.34
2022-09-12T05:12:05.209Z,13.45
2022-09-12T05:14:34.183Z,13.22
2022-09-12T05:17:03.469Z,13.21
2022-09-12T05:19:32.189Z,13.21
2022-09-12T05:22:00.011Z,13.32
2022-09-12T05:24:27.723Z,13.42
2022-09-12T05:26:55.172Z,13.62
2022-09-12T05:29:22.474Z,13.83
2022-09-12T05:31:52.238Z,14.17
2022-09-12T05:34:20.930Z,14.42
2022-09-12T05:36:49.079Z,14.77
2022-09-12T05:39:16.918Z,14.77
2022-09-12T05:41:44.274Z,15.03
2022-09-12T05:44:14.384Z,14.72
2022-09-12T05:46:45.544Z,14.17
2022-09-12T05:49:14.618Z,14.28
2022-09-12T05:51:45.794Z,14.38
2022-09-12T05:54:18.738Z,14.51
2022-09-12T05:56:47.119Z,14.61
2022-09-12T05:59:20.442Z,14.49
2022-09-12T06:01:49.093Z,14.93
2022-09-12T06:04:17.578Z,14.59
2022-09-12T06:06:46.237Z,14.76
2022-09-12T06:09:16.512Z,14.92
2022-09-12T06:11:46.180Z,15.05
2022-09-12T06:14:17.472Z,15.32
2022-09-12T06:16:47.194Z,15.56
2022-09-12T06:19:21.628Z,15.54
2022-09-12T06:21:50.055Z,15.57
2022-09-12T06:24:19.073Z,16.17
2022-09-12T06:26:48.284Z,16.16
2022-09-12T06:29:16.717Z,16.33
2022-09-12T06:31:46.464Z,16.61
2022-09-12T06:34:16.203Z,16.81
2022-09-12T06:36:48.277Z,17.29
2022-09-12T06:39:20.776Z,16.84
2022-09-12T06:41:52.890Z,16.95
2022-09-12T06:44:33.412Z,17.01
2022-09-12T06:47:00.749Z,17.20
2022-09-12T06:49:28.105Z,17.52
2022-09-12T06:52:10.397Z,17.26
2022-09-12T06:54:38.540Z,17.34
2022-09-12T06:57:06.360Z,18.29
2022-09-12T06:59:33.751Z,19.44
2022-09-12T07:02:05.120Z,20.59
2022-09-12T07:04:36.059Z,21.78
2022-09-12T07:07:03.926Z,22.17
2022-09-12T07:09:31.418Z,23.45
2022-09-12T07:11:59.012Z,25.74
2022-09-12T07:14:26.376Z,27.26
2022-09-12T07:16:53.897Z,29.43
2022-09-12T07:19:21.488Z,30.69
2022-09-12T07:21:49.067Z,32.24
2022-09-12T07:24:16.992Z,33.42
2022-09-12T07:26:44.747Z,33.30
2022-09-12T07:32:06.678Z,32.04
2022-09-12T07:34:35.389Z,32.28
2022-09-12T07:37:04.243Z,33.07
2022-09-12T07:39:32.608Z,33.13
2022-09-12T07:42:00.632Z,33.70
2022-09-12T07:44:29.510Z,34.40
2022-09-12T07:46:57.751Z,34.34
2022-09-12T07:49:26.419Z,34.75
2022-09-12T07:51:54.614Z,36.63
2022-09-12T07:54:23.087Z,36.69
2022-09-12T07:56:50.986Z,37.74
2022-09-12T07:59:41.443Z,37.87
2022-09-12T08:02:16.599Z,38.69
2022-09-12T08:05:20.760Z,38.98
2022-09-12T08:13:46.261Z,38.42
2022-09-12T08:22:10.912Z,40.28
2022-09-12T08:25:31.997Z,40.86
2022-09-12T08:28:01.716Z,40.16
2022-09-12T08:30:29.922Z,40.81
2022-09-12T08:32:59.439Z,41.01
2022-09-12T08:35:27.882Z,41.84
2022-09-12T08:37:59.322Z,41.99
2022-09-12T08:40:27.595Z,41.28
2022-09-12T08:43:21.159Z,42.47
2022-09-12T08:46:09.781Z,42.73
2022-09-12T08:48:39.578Z,42.79
2022-09-12T08:51:16.451Z,43.02
2022-09-12T08:53:50.355Z,43.28
2022-09-12T08:56:18.905Z,42.95
2022-09-12T08:58:48.836Z,42.51
2022-09-12T09:01:42.515Z,42.83
2022-09-12T09:04:53.482Z,44.04
2022-09-12T09:16:56.514Z,45.18
2022-09-12T09:19:42.845Z,45.68
2022-09-12T09:22:32.927Z,46.60
2022-09-12T09:25:13.855Z,46.81
2022-09-12T09:28:06.345Z,45.76
2022-09-12T09:30:37.159Z,46.07
2022-09-12T09:33:12.740Z,46.49
2022-09-12T09:45:17.623Z,47.58
2022-09-12T09:48:04.692Z,46.29
2022-09-12T09:50:33.901Z,46.47
2022-09-12T09:53:05.943Z,46.11
2022-09-12T09:55:44.110Z,46.17
2022-09-12T09:58:12.452Z,47.53
2022-09-12T10:00:41.006Z,48.23
2022-09-12T10:06:01.626Z,48.17
2022-09-12T10:08:35.708Z,48.40
2022-09-12T10:19:06.306Z,46.38
2022-09-12T10:21:54.644Z,46.92
2022-09-12T10:24:38.239Z,48.18
2022-09-12T10:30:21.976Z,47.79
2022-09-12T10:32:51.310Z,46.89
2022-09-12T10:35:44.258Z,46.92
2022-09-12T10:41:07.051Z,47.62
2022-09-12T10:52:25.255Z,45.74
2022-09-12T10:54:54.305Z,46.24
2022-09-12T10:57:58.842Z,46.38
2022-09-12T11:00:30.796Z,46.02
2022-09-12T11:06:00.007Z,46.48
2022-09-12T11:30:00.067Z,45.19
2022-09-12T11:35:55.235Z,41.90
2022-09-12T11:41:31.450Z,42.82
2022-09-12T11:44:40.282Z,44.32
2022-09-12T11:47:14.143Z,43.73
2022-09-12T11:52:47.953Z,41.31
2022-09-12T11:55:25.392Z,42.14
2022-09-12T11:58:00.171Z,42.39
2022-09-12T12:00:51.909Z,42.58
2022-09-12T12:03:46.715Z,41.92
2022-09-12T12:08:58.760Z,41.47
2022-09-12T12:14:29.131Z,42.16
2022-09-12T12:16:59.641Z,43.60
2022-09-12T12:19:40.347Z,44.30
2022-09-12T12:22:22.544Z,44.91
2022-09-12T12:38:03.392Z,44.31
2022-09-12T12:40:33.022Z,44.50
2022-09-12T12:43:04.909Z,43.77
2022-09-12T12:48:19.043Z,43.77
2022-09-12T12:50:47.389Z,41.47
2022-09-12T14:29:43.947Z,32.03
2022-09-12T15:07:36.639Z,30.83
2022-09-12T15:24:53.787Z,30.53
2022-09-12T15:28:33.272Z,30.18
2022-09-12T15:31:29.775Z,30.78
2022-09-12T15:38:47.399Z,30.80
2022-09-12T15:46:21.855Z,31.14
2022-09-12T15:49:00.134Z,31.03
2022-09-12T15:51:37.203Z,30.52
2022-09-12T15:54:06.674Z,30.04
2022-09-12T15:56:40.522Z,29.74
2022-09-12T15:59:32.767Z,29.89
2022-09-12T16:02:36.277Z,30.28
2022-09-12T16:05:25.746Z,30.34
2022-09-12T16:07:56.419Z,30.21
2022-09-12T16:10:33.509Z,30.01
2022-09-12T16:13:01.379Z,30.07
2022-09-12T16:15:29.662Z,29.93
2022-09-12T16:18:02.918Z,29.47
2022-09-12T16:20:42.055Z,29.29
2022-09-12T16:23:18.244Z,29.38
2022-09-12T16:26:01.876Z,28.71
2022-09-12T16:28:41.734Z,28.45
2022-09-12T16:31:18.118Z,28.56
2022-09-12T16:33:58.306Z,28.78
2022-09-12T16:36:29.909Z,28.72
2022-09-12T16:39:03.682Z,28.44
2022-09-12T16:41:32.900Z,28.67
2022-09-12T16:44:08.650Z,28.74
2022-09-12T16:46:43.331Z,28.53
2022-09-12T16:49:16.365Z,28.36
2022-09-12T16:51:48.132Z,28.26
2022-09-12T16:54:17.724Z,28.44
2022-09-12T16:56:58.371Z,28.34
2022-09-12T16:59:31.763Z,28.39
2022-09-12T17:02:11.036Z,28.05
2022-09-12T17:04:42.610Z,27.85
2022-09-12T17:07:10.952Z,27.67
2022-09-12T17:09:39.025Z,27.75
2022-09-12T17:12:19.729Z,27.64
2022-09-12T17:14:48.636Z,27.42
2022-09-12T17:17:16.346Z,27.08
2022-09-12T17:19:43.983Z,26.96
2022-09-12T17:22:11.642Z,27.09
2022-09-12T17:24:40.460Z,26.96
2022-09-12T17:27:08.279Z,26.70
2022-09-12T17:29:37.143Z,26.46
2022-09-12T17:32:05.324Z,26.25
2022-09-12T17:34:32.935Z,26.29
2022-09-12T17:37:01.011Z,26.19
2022-09-12T17:39:28.847Z,26.23
2022-09-12T17:41:57.903Z,25.85
2022-09-12T17:44:25.773Z,25.42
2022-09-12T17:46:53.288Z,25.05
2022-09-12T17:49:22.182Z,24.93
2022-09-12T17:51:51.321Z,24.80
2022-09-12T17:54:21.574Z,24.62
2022-09-12T17:56:51.428Z,24.27
2022-09-12T17:59:24.418Z,24.18
2022-09-12T18:02:12.073Z,24.02
2022-09-12T18:04:42.883Z,23.83
2022-09-12T18:07:10.789Z,23.73
2022-09-12T18:09:42.271Z,23.63
2022-09-12T18:12:15.916Z,23.51
2022-09-12T18:14:44.185Z,23.29
2022-09-12T18:17:12.783Z,23.16
2022-09-12T18:19:40.699Z,22.91
2022-09-12T18:22:12.237Z,22.71
2022-09-12T18:24:40.437Z,22.40
2022-09-12T18:27:11.979Z,22.20
2022-09-12T18:29:40.838Z,22.33
2022-09-12T18:32:11.979Z,22.22
2022-09-12T18:34:41.214Z,22.06
2022-09-12T18:37:09.890Z,21.99
2022-09-12T18:39:38.873Z,21.89
2022-09-12T18:42:08.499Z,21.93
2022-09-12T18:44:36.102Z,21.79
2022-09-12T18:47:04.246Z,21.72
2022-09-12T18:49:31.519Z,21.52
2022-09-12T18:51:59.201Z,21.34
2022-09-12T18:54:26.501Z,21.39
2022-09-12T18:56:54.025Z,21.31
2022-09-12T18:59:21.279Z,20.94
2022-09-12T19:01:50.290Z,21.03
2022-09-12T19:04:17.649Z,21.06
2022-09-12T19:06:48.267Z,21.04
2022-09-12T19:09:21.450Z,20.99
2022-09-12T19:11:50.148Z,20.75
2022-09-12T19:14:23.480Z,20.76
2022-09-12T19:16:52.766Z,20.36
2022-09-12T19:19:21.189Z,20.19
2022-09-12T19:21:48.552Z,20.31
2022-09-12T19:24:17.033Z,20.13
2022-09-12T19:26:45.195Z,20.20
2022-09-12T19:29:14.228Z,20.22
2022-09-12T19:31:41.725Z,20.24
2022-09-12T19:34:12.485Z,20.15
2022-09-12T19:36:45.795Z,20.15
2022-09-12T19:39:16.878Z,20.17
2022-09-12T19:41:45.663Z,20.14
2022-09-12T19:44:13.657Z,19.81
2022-09-12T19:46:43.791Z,19.62
2022-09-12T19:49:13.079Z,19.71
2022-09-12T19:51:43.845Z,19.55
2022-09-12T19:54:11.561Z,19.39
2022-09-12T19:56:39.253Z,19.07
2022-09-12T19:59:06.597Z,18.87
2022-09-12T20:01:36.779Z,18.78
2022-09-12T20:04:06.708Z,18.86
2022-09-12T20:06:34.406Z,18.94
2022-09-12T20:09:01.800Z,18.94
2022-09-12T20:11:29.099Z,19.06
2022-09-12T20:13:56.292Z,19.11
2022-09-12T20:16:29.083Z,19.00
2022-09-12T20:19:02.270Z,18.96
2022-09-12T20:21:33.013Z,19.01
2022-09-12T20:24:11.229Z,19.22
2022-09-12T20:26:39.794Z,19.08
2022-09-12T20:29:08.520Z,19.07
2022-09-12T20:31:39.594Z,19.19
2022-09-12T20:34:09.148Z,19.19
2022-09-12T20:36:36.446Z,18.95
2022-09-12T20:39:04.813Z,18.93
2022-09-12T20:41:36.075Z,19.14
2022-09-12T20:44:03.737Z,19.32
2022-09-12T20:46:31.404Z,19.12
2022-09-12T20:48:58.974Z,18.94
2022-09-12T20:51:27.239Z,18.78
2022-09-12T20:53:57.365Z,18.77
2022-09-12T20:56:28.449Z,18.77
2022-09-12T20:58:56.347Z,18.75
2022-09-12T21:01:25.849Z,18.79
2022-09-12T21:03:53.699Z,18.70
2022-09-12T21:06:21.826Z,18.79
2022-09-12T21:08:50.990Z,18.75
2022-09-12T21:11:20.615Z,18.61
2022-09-12T21:13:48.212Z,18.41
2022-09-12T21:16:21.063Z,18.19
2022-09-12T21:18:58.251Z,18.11
2022-09-12T21:21:27.257Z,18.10
2022-09-12T21:24:02.286Z,17.83
2022-09-12T21:26:30.130Z,17.76
2022-09-12T21:28:58.145Z,17.55
2022-09-12T21:31:26.578Z,17.18
2022-09-12T21:33:54.008Z,17.03
2022-09-12T21:36:21.437Z,16.95
2022-09-12T21:38:48.651Z,16.86
2022-09-12T21:41:18.330Z,17.31
2022-09-12T21:43:45.716Z,17.46
2022-09-12T21:46:13.366Z,17.71
2022-09-12T21:48:43.351Z,17.72
2022-09-12T21:51:10.668Z,17.22
2022-09-12T21:53:38.581Z,17.19
2022-09-12T21:56:09.878Z,17.52
2022-09-12T21:58:37.865Z,17.36
2022-09-12T22:01:08.555Z,17.42
2022-09-12T22:03:35.850Z,17.59
2022-09-12T22:06:06.224Z,17.41
2022-09-12T22:08:37.638Z,17.22
2022-09-12T22:11:09.808Z,17.33
2022-09-12T22:13:42.813Z,17.16
2022-09-12T22:16:11.446Z,17.17
2022-09-12T22:18:39.144Z,17.20
2022-09-12T22:21:17.570Z,17.03
2022-09-12T22:24:06.620Z,17.04
2022-09-12T22:26:44.046Z,17.31
2022-09-12T22:29:14.520Z,17.37
2022-09-12T22:31:43.034Z,17.12
2022-09-12T22:34:10.621Z,16.98
2022-09-12T22:36:39.157Z,16.71
2022-09-12T22:39:07.815Z,16.43
2022-09-12T22:41:35.113Z,16.46
2022-09-12T22:44:02.592Z,16.52
2022-09-12T22:46:30.528Z,16.63
2022-09-12T22:48:57.885Z,16.42
2022-09-12T22:51:25.630Z,16.14
2022-09-12T22:53:53.078Z,16.32
2022-09-12T22:56:20.285Z,16.46
2022-09-12T22:58:47.693Z,16.45
2022-09-12T23:01:15.543Z,16.66
2022-09-12T23:03:43.100Z,16.34
2022-09-12T23:06:11.727Z,15.95
2022-09-12T23:08:39.973Z,15.90
2022-09-12T23:11:13.276Z,15.98
2022-09-12T23:13:45.746Z,15.78
2022-09-12T23:16:20.724Z,15.71
2022-09-12T23:18:49.224Z,15.52
2022-09-12T23:21:21.117Z,15.82
2022-09-12T23:23:48.809Z,16.08
2022-09-12T23:26:22.591Z,16.14
2022-09-12T23:28:54.762Z,16.04
2022-09-12T23:31:29.717Z,15.92
2022-09-12T23:34:05.781Z,15.70
2022-09-12T23:36:34.311Z,15.76
2022-09-12T23:39:02.161Z,15.80
2022-09-12T23:41:29.621Z,16.27
2022-09-12T23:43:57.232Z,16.46
2022-09-12T23:46:24.667Z,16.37
2022-09-12T23:48:53.370Z,16.19
2022-09-12T23:51:21.777Z,16.28
2022-09-12T23:53:49.358Z,16.44
2022-09-12T23:56:16.614Z,16.12
2022-09-12T23:58:43.940Z,16.09
